sensor_id;sensor_type;location;lat;lon;timestamp;temperature;humidity
24452;DHT22;13350;50.984;5.822;2023-12-14T00:01:43;8.20;99.90
24452;DHT22;13350;50.984;5.822;2023-12-14T00:04:11;8.20;99.90
24452;DHT22;13350;50.984;5.822;2023-12-14T00:06:38;8.20;99.90
24452;DHT22;13350;50.984;5.822;2023-12-14T00:09:05;8.20;99.90
24452;DHT22;13350;50.984;5.822;2023-12-14T00:11:38;8.30;99.90
24452;DHT22;13350;50.984;5.822;2023-12-14T00:14:05;8.30;99.90
24452;DHT22;13350;50.984;5.822;2023-12-14T00:16:32;8.30;99.90
24452;DHT22;13350;50.984;5.822;2023-12-14T00:18:59;8.30;99.90
24452;DHT22;13350;50.984;5.822;2023-12-14T00:21:26;8.30;99.90
24452;DHT22;13350;50.984;5.822;2023-12-14T00:23:53;8.40;99.90
24452;DHT22;13350;50.984;5.822;2023-12-14T00:26:20;8.40;99.90
24452;DHT22;13350;50.984;5.822;2023-12-14T00:28:49;8.40;99.90
24452;DHT22;13350;50.984;5.822;2023-12-14T00:31:16;8.40;99.90
24452;DHT22;13350;50.984;5.822;2023-12-14T00:33:43;8.50;99.90
24452;DHT22;13350;50.984;5.822;2023-12-14T00:36:17;8.50;99.90
24452;DHT22;13350;50.984;5.822;2023-12-14T00:38:44;8.40;99.90
24452;DHT22;13350;50.984;5.822;2023-12-14T00:41:11;8.50;99.90
24452;DHT22;13350;50.984;5.822;2023-12-14T00:43:38;8.40;99.90
24452;DHT22;13350;50.984;5.822;2023-12-14T00:46:06;8.50;99.90
24452;DHT22;13350;50.984;5.822;2023-12-14T00:48:33;8.50;99.90
24452;DHT22;13350;50.984;5.822;2023-12-14T00:51:00;8.50;99.90
24452;DHT22;13350;50.984;5.822;2023-12-14T00:53:27;8.50;99.90
24452;DHT22;13350;50.984;5.822;2023-12-14T00:55:54;8.50;99.90
24452;DHT22;13350;50.984;5.822;2023-12-14T00:58:21;8.50;99.90
24452;DHT22;13350;50.984;5.822;2023-12-14T01:00:48;8.50;99.90
24452;DHT22;13350;50.984;5.822;2023-12-14T01:03:16;8.50;99.90
24452;DHT22;13350;50.984;5.822;2023-12-14T01:05:43;8.50;99.90
24452;DHT22;13350;50.984;5.822;2023-12-14T01:08:10;8.50;99.90
24452;DHT22;13350;50.984;5.822;2023-12-14T01:10:37;8.60;99.90
24452;DHT22;13350;50.984;5.822;2023-12-14T01:13:04;8.60;99.90
24452;DHT22;13350;50.984;5.822;2023-12-14T01:15:31;8.50;99.90
24452;DHT22;13350;50.984;5.822;2023-12-14T01:17:58;8.50;99.90
24452;DHT22;13350;50.984;5.822;2023-12-14T01:20:26;8.60;99.90
24452;DHT22;13350;50.984;5.822;2023-12-14T01:22:53;8.50;99.90
24452;DHT22;13350;50.984;5.822;2023-12-14T01:25:20;8.50;99.90
24452;DHT22;13350;50.984;5.822;2023-12-14T01:27:47;8.60;99.90
24452;DHT22;13350;50.984;5.822;2023-12-14T01:30:14;8.60;99.90
24452;DHT22;13350;50.984;5.822;2023-12-14T01:32:41;8.60;99.90
24452;DHT22;13350;50.984;5.822;2023-12-14T01:35:08;8.60;99.90
24452;DHT22;13350;50.984;5.822;2023-12-14T01:37:37;8.50;99.90
24452;DHT22;13350;50.984;5.822;2023-12-14T01:40:05;8.50;99.90
24452;DHT22;13350;50.984;5.822;2023-12-14T01:42:32;8.50;99.90
24452;DHT22;13350;50.984;5.822;2023-12-14T01:44:59;8.50;99.90
24452;DHT22;13350;50.984;5.822;2023-12-14T01:47:26;8.40;99.90
24452;DHT22;13350;50.984;5.822;2023-12-14T01:49:53;8.40;99.90
24452;DHT22;13350;50.984;5.822;2023-12-14T01:52:20;8.40;99.90
24452;DHT22;13350;50.984;5.822;2023-12-14T01:54:48;8.30;99.90
24452;DHT22;13350;50.984;5.822;2023-12-14T01:57:15;8.30;99.90
24452;DHT22;13350;50.984;5.822;2023-12-14T01:59:42;8.20;99.90
24452;DHT22;13350;50.984;5.822;2023-12-14T02:02:09;8.20;99.90
24452;DHT22;13350;50.984;5.822;2023-12-14T02:04:36;8.20;99.90
24452;DHT22;13350;50.984;5.822;2023-12-14T02:07:03;8.20;99.90
24452;DHT22;13350;50.984;5.822;2023-12-14T02:09:30;8.20;99.90
24452;DHT22;13350;50.984;5.822;2023-12-14T02:11:58;8.10;99.90
24452;DHT22;13350;50.984;5.822;2023-12-14T02:14:25;8.10;99.90
24452;DHT22;13350;50.984;5.822;2023-12-14T02:16:52;8.10;99.90
24452;DHT22;13350;50.984;5.822;2023-12-14T02:19:19;8.10;99.90
24452;DHT22;13350;50.984;5.822;2023-12-14T02:21:46;8.10;99.90
24452;DHT22;13350;50.984;5.822;2023-12-14T02:24:14;8.10;99.90
24452;DHT22;13350;50.984;5.822;2023-12-14T02:26:41;8.00;99.90
24452;DHT22;13350;50.984;5.822;2023-12-14T02:29:08;7.90;99.90
24452;DHT22;13350;50.984;5.822;2023-12-14T02:31:35;7.90;99.90
24452;DHT22;13350;50.984;5.822;2023-12-14T02:34:02;7.80;99.90
24452;DHT22;13350;50.984;5.822;2023-12-14T02:36:29;7.80;99.90
24452;DHT22;13350;50.984;5.822;2023-12-14T02:38:56;7.70;99.90
24452;DHT22;13350;50.984;5.822;2023-12-14T02:41:24;7.70;99.90
24452;DHT22;13350;50.984;5.822;2023-12-14T02:43:51;7.70;99.90
24452;DHT22;13350;50.984;5.822;2023-12-14T02:46:18;7.50;99.90
24452;DHT22;13350;50.984;5.822;2023-12-14T02:48:45;7.40;99.90
24452;DHT22;13350;50.984;5.822;2023-12-14T02:51:12;7.30;99.90
24452;DHT22;13350;50.984;5.822;2023-12-14T02:53:40;7.30;99.90
24452;DHT22;13350;50.984;5.822;2023-12-14T02:56:09;7.30;99.90
24452;DHT22;13350;50.984;5.822;2023-12-14T02:58:37;7.30;99.90
24452;DHT22;13350;50.984;5.822;2023-12-14T03:01:04;7.30;99.90
24452;DHT22;13350;50.984;5.822;2023-12-14T03:03:31;7.30;99.90
24452;DHT22;13350;50.984;5.822;2023-12-14T03:05:58;7.20;99.90
24452;DHT22;13350;50.984;5.822;2023-12-14T03:08:25;7.20;99.90
24452;DHT22;13350;50.984;5.822;2023-12-14T03:10:52;7.30;99.90
24452;DHT22;13350;50.984;5.822;2023-12-14T03:13:19;7.20;99.90
24452;DHT22;13350;50.984;5.822;2023-12-14T03:15:47;7.20;99.90
24452;DHT22;13350;50.984;5.822;2023-12-14T03:18:15;7.20;99.90
24452;DHT22;13350;50.984;5.822;2023-12-14T03:20:42;7.20;99.90
24452;DHT22;13350;50.984;5.822;2023-12-14T03:23:09;7.10;99.90
24452;DHT22;13350;50.984;5.822;2023-12-14T03:25:36;7.10;99.90
24452;DHT22;13350;50.984;5.822;2023-12-14T03:28:03;7.10;99.90
24452;DHT22;13350;50.984;5.822;2023-12-14T03:30:30;7.10;99.90
24452;DHT22;13350;50.984;5.822;2023-12-14T03:32:58;7.10;99.90
24452;DHT22;13350;50.984;5.822;2023-12-14T03:35:25;7.00;99.90
24452;DHT22;13350;50.984;5.822;2023-12-14T03:37:52;7.00;99.90
24452;DHT22;13350;50.984;5.822;2023-12-14T03:40:20;7.00;99.90
24452;DHT22;13350;50.984;5.822;2023-12-14T03:42:47;7.00;99.90
24452;DHT22;13350;50.984;5.822;2023-12-14T03:45:13;6.90;99.90
24452;DHT22;13350;50.984;5.822;2023-12-14T03:47:41;6.90;99.90
24452;DHT22;13350;50.984;5.822;2023-12-14T03:50:10;7.00;99.90
24452;DHT22;13350;50.984;5.822;2023-12-14T03:52:37;6.90;99.90
24452;DHT22;13350;50.984;5.822;2023-12-14T03:55:04;6.90;99.90
24452;DHT22;13350;50.984;5.822;2023-12-14T03:57:31;6.90;99.90
24452;DHT22;13350;50.984;5.822;2023-12-14T03:59:59;6.90;99.90
24452;DHT22;13350;50.984;5.822;2023-12-14T04:02:27;6.90;99.90
24452;DHT22;13350;50.984;5.822;2023-12-14T04:04:54;6.90;99.90
24452;DHT22;13350;50.984;5.822;2023-12-14T04:07:22;6.90;99.90
24452;DHT22;13350;50.984;5.822;2023-12-14T04:09:49;6.90;99.90
24452;DHT22;13350;50.984;5.822;2023-12-14T04:12:16;6.90;99.90
24452;DHT22;13350;50.984;5.822;2023-12-14T04:14:42;6.90;99.90
24452;DHT22;13350;50.984;5.822;2023-12-14T04:17:10;6.80;99.90
24452;DHT22;13350;50.984;5.822;2023-12-14T04:19:37;6.80;99.90
24452;DHT22;13350;50.984;5.822;2023-12-14T04:22:04;6.80;99.90
24452;DHT22;13350;50.984;5.822;2023-12-14T04:24:33;6.80;99.90
24452;DHT22;13350;50.984;5.822;2023-12-14T04:27:00;6.80;99.90
24452;DHT22;13350;50.984;5.822;2023-12-14T04:29:27;6.80;99.90
24452;DHT22;13350;50.984;5.822;2023-12-14T04:31:54;6.80;99.90
24452;DHT22;13350;50.984;5.822;2023-12-14T04:34:20;6.70;99.90
24452;DHT22;13350;50.984;5.822;2023-12-14T04:36:47;6.70;99.90
24452;DHT22;13350;50.984;5.822;2023-12-14T04:39:15;6.70;99.90
24452;DHT22;13350;50.984;5.822;2023-12-14T04:41:43;6.70;99.90
24452;DHT22;13350;50.984;5.822;2023-12-14T04:44:10;6.70;99.90
24452;DHT22;13350;50.984;5.822;2023-12-14T04:46:37;6.70;99.90
24452;DHT22;13350;50.984;5.822;2023-12-14T04:49:04;6.70;99.90
24452;DHT22;13350;50.984;5.822;2023-12-14T04:51:31;6.70;99.90
24452;DHT22;13350;50.984;5.822;2023-12-14T04:53:58;6.70;99.90
24452;DHT22;13350;50.984;5.822;2023-12-14T04:56:25;6.60;99.90
24452;DHT22;13350;50.984;5.822;2023-12-14T04:58:53;6.60;99.90
24452;DHT22;13350;50.984;5.822;2023-12-14T05:01:20;6.60;99.90
24452;DHT22;13350;50.984;5.822;2023-12-14T05:03:47;6.60;99.90
24452;DHT22;13350;50.984;5.822;2023-12-14T05:06:14;6.60;99.90
24452;DHT22;13350;50.984;5.822;2023-12-14T05:08:41;6.60;99.90
24452;DHT22;13350;50.984;5.822;2023-12-14T05:11:08;6.60;99.90
24452;DHT22;13350;50.984;5.822;2023-12-14T05:13:35;6.60;99.90
24452;DHT22;13350;50.984;5.822;2023-12-14T05:16:03;6.60;99.90
24452;DHT22;13350;50.984;5.822;2023-12-14T05:18:30;6.60;99.90
24452;DHT22;13350;50.984;5.822;2023-12-14T05:20:57;6.60;99.90
24452;DHT22;13350;50.984;5.822;2023-12-14T05:23:24;6.60;99.90
24452;DHT22;13350;50.984;5.822;2023-12-14T05:25:51;6.60;99.90
24452;DHT22;13350;50.984;5.822;2023-12-14T05:28:18;6.60;99.90
24452;DHT22;13350;50.984;5.822;2023-12-14T05:30:45;6.60;99.90
24452;DHT22;13350;50.984;5.822;2023-12-14T05:33:14;6.60;99.90
24452;DHT22;13350;50.984;5.822;2023-12-14T05:35:41;6.60;99.90
24452;DHT22;13350;50.984;5.822;2023-12-14T05:38:07;6.60;99.90
24452;DHT22;13350;50.984;5.822;2023-12-14T05:40:34;6.60;99.90
24452;DHT22;13350;50.984;5.822;2023-12-14T05:43:02;6.60;99.90
24452;DHT22;13350;50.984;5.822;2023-12-14T05:45:29;6.50;99.90
24452;DHT22;13350;50.984;5.822;2023-12-14T05:47:56;6.50;99.90
24452;DHT22;13350;50.984;5.822;2023-12-14T05:50:24;6.50;99.90
24452;DHT22;13350;50.984;5.822;2023-12-14T05:52:51;6.50;99.90
24452;DHT22;13350;50.984;5.822;2023-12-14T05:55:18;6.50;99.90
24452;DHT22;13350;50.984;5.822;2023-12-14T05:57:47;6.50;99.90
24452;DHT22;13350;50.984;5.822;2023-12-14T06:00:14;6.40;99.90
24452;DHT22;13350;50.984;5.822;2023-12-14T06:02:41;6.40;99.90
24452;DHT22;13350;50.984;5.822;2023-12-14T06:05:08;6.40;99.90
24452;DHT22;13350;50.984;5.822;2023-12-14T06:07:37;6.40;99.90
24452;DHT22;13350;50.984;5.822;2023-12-14T06:10:04;6.40;99.90
24452;DHT22;13350;50.984;5.822;2023-12-14T06:12:32;6.40;99.90
24452;DHT22;13350;50.984;5.822;2023-12-14T06:14:59;6.30;99.90
24452;DHT22;13350;50.984;5.822;2023-12-14T06:17:26;6.30;99.90
24452;DHT22;13350;50.984;5.822;2023-12-14T06:19:53;6.30;99.90
24452;DHT22;13350;50.984;5.822;2023-12-14T06:22:20;6.30;99.90
24452;DHT22;13350;50.984;5.822;2023-12-14T06:24:48;6.30;99.90
24452;DHT22;13350;50.984;5.822;2023-12-14T06:27:15;6.30;99.90
24452;DHT22;13350;50.984;5.822;2023-12-14T06:29:42;6.30;99.90
24452;DHT22;13350;50.984;5.822;2023-12-14T06:32:09;6.30;99.90
24452;DHT22;13350;50.984;5.822;2023-12-14T06:34:36;6.30;99.90
24452;DHT22;13350;50.984;5.822;2023-12-14T06:37:03;6.30;99.90
24452;DHT22;13350;50.984;5.822;2023-12-14T06:39:31;6.20;99.90
24452;DHT22;13350;50.984;5.822;2023-12-14T06:41:59;6.30;99.90
24452;DHT22;13350;50.984;5.822;2023-12-14T06:44:26;6.20;99.90
24452;DHT22;13350;50.984;5.822;2023-12-14T06:46:53;6.20;99.90
24452;DHT22;13350;50.984;5.822;2023-12-14T06:49:20;6.20;99.90
24452;DHT22;13350;50.984;5.822;2023-12-14T06:51:47;6.20;99.90
24452;DHT22;13350;50.984;5.822;2023-12-14T06:54:14;6.10;99.90
24452;DHT22;13350;50.984;5.822;2023-12-14T06:56:41;6.10;99.90
24452;DHT22;13350;50.984;5.822;2023-12-14T06:59:10;6.10;99.90
24452;DHT22;13350;50.984;5.822;2023-12-14T07:01:37;6.20;99.90
24452;DHT22;13350;50.984;5.822;2023-12-14T07:04:04;6.20;99.90
24452;DHT22;13350;50.984;5.822;2023-12-14T07:06:31;6.20;99.90
24452;DHT22;13350;50.984;5.822;2023-12-14T07:08:57;6.10;99.90
24452;DHT22;13350;50.984;5.822;2023-12-14T07:11:25;6.10;99.90
24452;DHT22;13350;50.984;5.822;2023-12-14T07:13:50;6.10;99.90
24452;DHT22;13350;50.984;5.822;2023-12-14T07:16:19;6.10;99.90
24452;DHT22;13350;50.984;5.822;2023-12-14T07:18:46;6.10;99.90
24452;DHT22;13350;50.984;5.822;2023-12-14T07:21:13;6.10;99.90
24452;DHT22;13350;50.984;5.822;2023-12-14T07:23:40;6.10;99.90
24452;DHT22;13350;50.984;5.822;2023-12-14T07:26:07;6.10;99.90
24452;DHT22;13350;50.984;5.822;2023-12-14T07:28:34;6.10;99.90
24452;DHT22;13350;50.984;5.822;2023-12-14T07:31:01;6.10;99.90
24452;DHT22;13350;50.984;5.822;2023-12-14T07:33:29;6.00;99.90
24452;DHT22;13350;50.984;5.822;2023-12-14T07:35:56;6.10;99.90
24452;DHT22;13350;50.984;5.822;2023-12-14T07:38:23;6.00;99.90
24452;DHT22;13350;50.984;5.822;2023-12-14T07:40:50;6.00;99.90
24452;DHT22;13350;50.984;5.822;2023-12-14T07:43:17;6.00;99.90
24452;DHT22;13350;50.984;5.822;2023-12-14T07:45:45;6.00;99.90
24452;DHT22;13350;50.984;5.822;2023-12-14T07:48:12;6.00;99.90
24452;DHT22;13350;50.984;5.822;2023-12-14T07:50:40;6.00;99.90
24452;DHT22;13350;50.984;5.822;2023-12-14T07:53:07;5.90;99.90
24452;DHT22;13350;50.984;5.822;2023-12-14T07:55:34;5.90;99.90
24452;DHT22;13350;50.984;5.822;2023-12-14T07:58:01;5.90;99.90
24452;DHT22;13350;50.984;5.822;2023-12-14T08:00:28;5.90;99.90
24452;DHT22;13350;50.984;5.822;2023-12-14T08:02:55;5.90;99.90
24452;DHT22;13350;50.984;5.822;2023-12-14T08:05:22;6.00;99.90
24452;DHT22;13350;50.984;5.822;2023-12-14T08:07:51;6.00;99.90
24452;DHT22;13350;50.984;5.822;2023-12-14T08:10:18;5.90;99.90
24452;DHT22;13350;50.984;5.822;2023-12-14T08:12:45;5.90;99.90
24452;DHT22;13350;50.984;5.822;2023-12-14T08:15:13;5.90;99.90
24452;DHT22;13350;50.984;5.822;2023-12-14T08:17:40;5.90;99.90
24452;DHT22;13350;50.984;5.822;2023-12-14T08:20:08;5.90;99.90
24452;DHT22;13350;50.984;5.822;2023-12-14T08:22:37;5.90;99.90
24452;DHT22;13350;50.984;5.822;2023-12-14T08:25:12;5.90;99.90
24452;DHT22;13350;50.984;5.822;2023-12-14T08:27:40;5.90;99.90
24452;DHT22;13350;50.984;5.822;2023-12-14T08:30:08;5.90;99.90
24452;DHT22;13350;50.984;5.822;2023-12-14T08:32:35;5.80;99.90
24452;DHT22;13350;50.984;5.822;2023-12-14T08:35:02;5.90;99.90
24452;DHT22;13350;50.984;5.822;2023-12-14T08:37:29;5.80;99.90
24452;DHT22;13350;50.984;5.822;2023-12-14T08:39:56;5.90;99.90
24452;DHT22;13350;50.984;5.822;2023-12-14T08:44:53;5.80;99.90
24452;DHT22;13350;50.984;5.822;2023-12-14T08:47:20;5.80;99.90
24452;DHT22;13350;50.984;5.822;2023-12-14T08:49:47;5.80;99.90
24452;DHT22;13350;50.984;5.822;2023-12-14T08:52:14;5.80;99.90
24452;DHT22;13350;50.984;5.822;2023-12-14T08:54:41;5.80;99.90
24452;DHT22;13350;50.984;5.822;2023-12-14T08:57:09;5.80;99.90
24452;DHT22;13350;50.984;5.822;2023-12-14T08:59:36;5.80;99.90
24452;DHT22;13350;50.984;5.822;2023-12-14T09:02:04;5.80;99.90
24452;DHT22;13350;50.984;5.822;2023-12-14T09:04:31;5.90;99.90
24452;DHT22;13350;50.984;5.822;2023-12-14T09:07:01;5.90;99.90
24452;DHT22;13350;50.984;5.822;2023-12-14T09:09:29;5.90;99.90
24452;DHT22;13350;50.984;5.822;2023-12-14T09:11:56;5.90;99.90
24452;DHT22;13350;50.984;5.822;2023-12-14T09:14:23;5.90;99.90
24452;DHT22;13350;50.984;5.822;2023-12-14T09:16:50;6.00;99.90
24452;DHT22;13350;50.984;5.822;2023-12-14T09:19:19;6.00;99.90
24452;DHT22;13350;50.984;5.822;2023-12-14T09:21:46;6.00;99.90
24452;DHT22;13350;50.984;5.822;2023-12-14T09:24:12;6.00;99.90
24452;DHT22;13350;50.984;5.822;2023-12-14T09:26:39;6.00;99.90
24452;DHT22;13350;50.984;5.822;2023-12-14T09:29:06;6.00;99.90
24452;DHT22;13350;50.984;5.822;2023-12-14T09:31:33;6.00;99.90
24452;DHT22;13350;50.984;5.822;2023-12-14T09:34:01;6.00;99.90
24452;DHT22;13350;50.984;5.822;2023-12-14T09:36:29;6.00;99.90
24452;DHT22;13350;50.984;5.822;2023-12-14T09:38:56;6.00;99.90
24452;DHT22;13350;50.984;5.822;2023-12-14T09:41:23;5.90;99.90
24452;DHT22;13350;50.984;5.822;2023-12-14T09:43:50;5.90;99.90
24452;DHT22;13350;50.984;5.822;2023-12-14T09:46:17;5.90;99.90
24452;DHT22;13350;50.984;5.822;2023-12-14T09:48:45;5.90;99.90
24452;DHT22;13350;50.984;5.822;2023-12-14T09:51:12;5.90;99.90
24452;DHT22;13350;50.984;5.822;2023-12-14T09:53:41;6.00;99.90
24452;DHT22;13350;50.984;5.822;2023-12-14T09:56:08;6.00;99.90
24452;DHT22;13350;50.984;5.822;2023-12-14T09:58:35;6.00;99.90
24452;DHT22;13350;50.984;5.822;2023-12-14T10:01:03;6.00;99.90
24452;DHT22;13350;50.984;5.822;2023-12-14T10:03:47;6.00;99.90
24452;DHT22;13350;50.984;5.822;2023-12-14T10:06:14;6.00;99.90
24452;DHT22;13350;50.984;5.822;2023-12-14T10:08:42;6.10;99.90
24452;DHT22;13350;50.984;5.822;2023-12-14T10:11:20;6.00;99.90
24452;DHT22;13350;50.984;5.822;2023-12-14T10:13:47;6.00;99.90
24452;DHT22;13350;50.984;5.822;2023-12-14T10:16:26;6.00;99.90
24452;DHT22;13350;50.984;5.822;2023-12-14T10:18:53;6.00;99.90
24452;DHT22;13350;50.984;5.822;2023-12-14T10:21:20;5.90;99.90
24452;DHT22;13350;50.984;5.822;2023-12-14T10:23:48;5.90;99.90
24452;DHT22;13350;50.984;5.822;2023-12-14T10:26:15;5.90;99.90
24452;DHT22;13350;50.984;5.822;2023-12-14T10:28:43;5.90;99.90
24452;DHT22;13350;50.984;5.822;2023-12-14T10:31:10;5.90;99.90
24452;DHT22;13350;50.984;5.822;2023-12-14T10:33:37;5.90;99.90
24452;DHT22;13350;50.984;5.822;2023-12-14T10:36:04;6.00;99.90
24452;DHT22;13350;50.984;5.822;2023-12-14T10:38:32;5.90;99.90
24452;DHT22;13350;50.984;5.822;2023-12-14T10:41:02;6.00;99.90
24452;DHT22;13350;50.984;5.822;2023-12-14T10:43:29;6.00;99.90
24452;DHT22;13350;50.984;5.822;2023-12-14T10:45:58;6.00;99.90
24452;DHT22;13350;50.984;5.822;2023-12-14T10:48:25;6.00;99.90
24452;DHT22;13350;50.984;5.822;2023-12-14T10:50:55;6.00;99.90
24452;DHT22;13350;50.984;5.822;2023-12-14T10:53:22;6.10;99.90
24452;DHT22;13350;50.984;5.822;2023-12-14T10:55:49;6.10;99.90
24452;DHT22;13350;50.984;5.822;2023-12-14T10:58:19;6.10;99.90
24452;DHT22;13350;50.984;5.822;2023-12-14T11:00:51;6.20;99.90
24452;DHT22;13350;50.984;5.822;2023-12-14T11:03:24;6.20;99.90
24452;DHT22;13350;50.984;5.822;2023-12-14T11:05:52;6.10;99.90
24452;DHT22;13350;50.984;5.822;2023-12-14T11:08:19;6.10;99.90
24452;DHT22;13350;50.984;5.822;2023-12-14T11:10:52;6.10;99.90
24452;DHT22;13350;50.984;5.822;2023-12-14T11:13:22;6.10;99.90
24452;DHT22;13350;50.984;5.822;2023-12-14T11:15:50;6.20;99.90
24452;DHT22;13350;50.984;5.822;2023-12-14T11:18:24;6.20;99.90
24452;DHT22;13350;50.984;5.822;2023-12-14T11:20:51;6.10;99.90
24452;DHT22;13350;50.984;5.822;2023-12-14T11:23:26;6.10;99.90
24452;DHT22;13350;50.984;5.822;2023-12-14T11:25:56;6.10;99.90
24452;DHT22;13350;50.984;5.822;2023-12-14T11:28:25;6.20;99.90
24452;DHT22;13350;50.984;5.822;2023-12-14T11:30:52;6.30;99.90
24452;DHT22;13350;50.984;5.822;2023-12-14T11:33:18;6.30;99.90
24452;DHT22;13350;50.984;5.822;2023-12-14T11:35:45;6.30;99.90
24452;DHT22;13350;50.984;5.822;2023-12-14T11:38:12;6.20;99.90
24452;DHT22;13350;50.984;5.822;2023-12-14T11:40:40;6.20;99.90
24452;DHT22;13350;50.984;5.822;2023-12-14T11:43:07;6.30;99.90
24452;DHT22;13350;50.984;5.822;2023-12-14T11:45:36;6.30;99.90
24452;DHT22;13350;50.984;5.822;2023-12-14T11:48:03;6.40;99.90
24452;DHT22;13350;50.984;5.822;2023-12-14T11:50:31;6.40;99.90
24452;DHT22;13350;50.984;5.822;2023-12-14T11:52:59;6.40;99.90
24452;DHT22;13350;50.984;5.822;2023-12-14T11:55:27;6.50;99.90
24452;DHT22;13350;50.984;5.822;2023-12-14T11:57:55;6.50;99.90
24452;DHT22;13350;50.984;5.822;2023-12-14T12:00:23;6.50;99.90
24452;DHT22;13350;50.984;5.822;2023-12-14T12:02:51;6.50;99.90
24452;DHT22;13350;50.984;5.822;2023-12-14T12:05:18;6.60;99.90
24452;DHT22;13350;50.984;5.822;2023-12-14T12:07:45;6.60;99.90
24452;DHT22;13350;50.984;5.822;2023-12-14T12:10:12;6.50;99.90
24452;DHT22;13350;50.984;5.822;2023-12-14T12:12:39;6.50;99.90
24452;DHT22;13350;50.984;5.822;2023-12-14T12:15:07;6.50;99.90
24452;DHT22;13350;50.984;5.822;2023-12-14T12:17:34;6.50;99.90
24452;DHT22;13350;50.984;5.822;2023-12-14T12:20:06;6.50;99.90
24452;DHT22;13350;50.984;5.822;2023-12-14T12:22:33;6.40;99.90
24452;DHT22;13350;50.984;5.822;2023-12-14T12:25:00;6.40;99.90
24452;DHT22;13350;50.984;5.822;2023-12-14T12:27:27;6.40;99.90
24452;DHT22;13350;50.984;5.822;2023-12-14T12:29:54;6.30;99.90
24452;DHT22;13350;50.984;5.822;2023-12-14T12:32:21;6.20;99.90
24452;DHT22;13350;50.984;5.822;2023-12-14T12:34:48;6.30;99.90
24452;DHT22;13350;50.984;5.822;2023-12-14T12:37:17;6.30;99.90
24452;DHT22;13350;50.984;5.822;2023-12-14T12:39:44;6.30;99.90
24452;DHT22;13350;50.984;5.822;2023-12-14T12:42:11;6.40;99.90
24452;DHT22;13350;50.984;5.822;2023-12-14T12:44:38;6.50;99.90
24452;DHT22;13350;50.984;5.822;2023-12-14T12:47:05;6.60;99.90
24452;DHT22;13350;50.984;5.822;2023-12-14T12:49:32;6.70;99.90
24452;DHT22;13350;50.984;5.822;2023-12-14T12:51:59;6.80;99.90
24452;DHT22;13350;50.984;5.822;2023-12-14T12:54:27;6.90;99.90
24452;DHT22;13350;50.984;5.822;2023-12-14T12:56:54;6.90;99.90
24452;DHT22;13350;50.984;5.822;2023-12-14T12:59:21;6.80;99.90
24452;DHT22;13350;50.984;5.822;2023-12-14T13:01:48;6.70;99.90
24452;DHT22;13350;50.984;5.822;2023-12-14T13:04:18;6.50;99.90
24452;DHT22;13350;50.984;5.822;2023-12-14T13:06:46;6.40;99.90
24452;DHT22;13350;50.984;5.822;2023-12-14T13:09:13;6.40;99.90
24452;DHT22;13350;50.984;5.822;2023-12-14T13:11:43;6.40;99.90
24452;DHT22;13350;50.984;5.822;2023-12-14T13:14:10;6.40;99.90
24452;DHT22;13350;50.984;5.822;2023-12-14T13:16:37;6.40;99.90
24452;DHT22;13350;50.984;5.822;2023-12-14T13:19:04;6.30;99.90
24452;DHT22;13350;50.984;5.822;2023-12-14T13:21:32;6.40;99.90
24452;DHT22;13350;50.984;5.822;2023-12-14T13:23:59;6.30;99.90
24452;DHT22;13350;50.984;5.822;2023-12-14T13:26:29;6.20;99.90
24452;DHT22;13350;50.984;5.822;2023-12-14T13:28:57;6.30;99.90
24452;DHT22;13350;50.984;5.822;2023-12-14T13:31:24;6.30;99.90
24452;DHT22;13350;50.984;5.822;2023-12-14T13:33:51;6.20;99.90
24452;DHT22;13350;50.984;5.822;2023-12-14T13:36:18;6.10;99.90
24452;DHT22;13350;50.984;5.822;2023-12-14T13:38:45;6.10;99.90
24452;DHT22;13350;50.984;5.822;2023-12-14T13:41:12;6.10;99.90
24452;DHT22;13350;50.984;5.822;2023-12-14T13:43:39;6.10;99.90
24452;DHT22;13350;50.984;5.822;2023-12-14T13:46:08;6.10;99.90
24452;DHT22;13350;50.984;5.822;2023-12-14T13:48:35;6.00;99.90
24452;DHT22;13350;50.984;5.822;2023-12-14T13:51:02;6.00;99.90
24452;DHT22;13350;50.984;5.822;2023-12-14T13:53:29;6.00;99.90
24452;DHT22;13350;50.984;5.822;2023-12-14T13:55:56;6.00;99.90
24452;DHT22;13350;50.984;5.822;2023-12-14T13:58:23;6.00;99.90
24452;DHT22;13350;50.984;5.822;2023-12-14T14:00:50;6.10;99.90
24452;DHT22;13350;50.984;5.822;2023-12-14T14:03:19;6.10;99.90
24452;DHT22;13350;50.984;5.822;2023-12-14T14:05:46;6.10;99.90
24452;DHT22;13350;50.984;5.822;2023-12-14T14:08:13;6.00;99.90
24452;DHT22;13350;50.984;5.822;2023-12-14T14:10:40;6.00;99.90
24452;DHT22;13350;50.984;5.822;2023-12-14T14:13:06;5.90;99.90
24452;DHT22;13350;50.984;5.822;2023-12-14T14:15:33;5.90;99.90
24452;DHT22;13350;50.984;5.822;2023-12-14T14:18:01;6.00;99.90
24452;DHT22;13350;50.984;5.822;2023-12-14T14:20:30;5.90;99.90
24452;DHT22;13350;50.984;5.822;2023-12-14T14:22:57;6.00;99.90
24452;DHT22;13350;50.984;5.822;2023-12-14T14:25:25;5.90;99.90
24452;DHT22;13350;50.984;5.822;2023-12-14T14:27:52;5.90;99.90
24452;DHT22;13350;50.984;5.822;2023-12-14T14:30:19;5.90;99.90
24452;DHT22;13350;50.984;5.822;2023-12-14T14:32:46;6.00;99.90
24452;DHT22;13350;50.984;5.822;2023-12-14T14:35:13;6.00;99.90
24452;DHT22;13350;50.984;5.822;2023-12-14T14:37:41;6.00;99.90
24452;DHT22;13350;50.984;5.822;2023-12-14T14:40:11;6.00;99.90
24452;DHT22;13350;50.984;5.822;2023-12-14T14:42:38;6.00;99.90
24452;DHT22;13350;50.984;5.822;2023-12-14T14:45:06;6.00;99.90
24452;DHT22;13350;50.984;5.822;2023-12-14T14:47:33;6.00;99.90
24452;DHT22;13350;50.984;5.822;2023-12-14T14:50:00;5.90;99.90
24452;DHT22;13350;50.984;5.822;2023-12-14T14:52:29;5.90;99.90
24452;DHT22;13350;50.984;5.822;2023-12-14T14:54:58;5.80;99.90
24452;DHT22;13350;50.984;5.822;2023-12-14T14:57:25;5.90;99.90
24452;DHT22;13350;50.984;5.822;2023-12-14T14:59:52;5.90;99.90
24452;DHT22;13350;50.984;5.822;2023-12-14T15:02:19;5.80;99.90
24452;DHT22;13350;50.984;5.822;2023-12-14T15:04:46;5.80;99.90
24452;DHT22;13350;50.984;5.822;2023-12-14T15:07:13;5.80;99.90
24452;DHT22;13350;50.984;5.822;2023-12-14T15:09:40;5.80;99.90
24452;DHT22;13350;50.984;5.822;2023-12-14T15:12:08;5.80;99.90
24452;DHT22;13350;50.984;5.822;2023-12-14T15:14:35;5.80;99.90
24452;DHT22;13350;50.984;5.822;2023-12-14T15:17:02;5.80;99.90
24452;DHT22;13350;50.984;5.822;2023-12-14T15:19:29;5.80;99.90
24452;DHT22;13350;50.984;5.822;2023-12-14T15:21:56;5.80;99.90
24452;DHT22;13350;50.984;5.822;2023-12-14T15:24:23;5.70;99.90
24452;DHT22;13350;50.984;5.822;2023-12-14T15:26:50;5.70;99.90
24452;DHT22;13350;50.984;5.822;2023-12-14T15:29:18;5.80;99.90
24452;DHT22;13350;50.984;5.822;2023-12-14T15:31:46;5.80;99.90
24452;DHT22;13350;50.984;5.822;2023-12-14T15:34:14;5.80;99.90
24452;DHT22;13350;50.984;5.822;2023-12-14T15:36:43;5.80;99.90
24452;DHT22;13350;50.984;5.822;2023-12-14T15:39:10;5.80;99.90
24452;DHT22;13350;50.984;5.822;2023-12-14T15:41:37;5.90;99.90
24452;DHT22;13350;50.984;5.822;2023-12-14T15:44:05;5.80;99.90
24452;DHT22;13350;50.984;5.822;2023-12-14T15:46:33;5.80;99.90
24452;DHT22;13350;50.984;5.822;2023-12-14T15:49:00;5.80;99.90